Fulton, Illinois
Current Conditions -  °F | °C
As of 2:35 PM on Friday 28 Nov 2014 (Local Time) from KCWI Reporting Station
Clear Clear  
Wind Chill: 22°   Ceiling: Unl
Heat Index: 30°   Visibility: 10mi
Dew Point: 25°   Wind: 9mph
Humidity: 80%   Direction: 140°SE
Pressure: 29.95"   Gusts: NA
Location:  41.87°N, 90.16°W
Report Text: KCWI 282035Z AUTO 14008KT 10SM CLR M01/M04 A2995 RMK AO1
Loading
Personal Weather Stations






























Interactive Weather Map New forecast layout! Learn more

10-Day Weather Forecast

Advertisements
Track Severe Weather on mobile